Time;durP1;ratioP1;P1;durP2;ratioP2;P2;SDS_P1;SDS_P2;PMS_P1;PMS_P2;Temp;Humidity;BMP_temperature;BMP_pressure;BME280_temperature;BME280_humidity;BME280_pressure;Samples;Min_cycle;Max_cycle;Signal;HPM_P1;HPM_P2
2023/03/08 00:00:50;;;;;;;;;;;;;;;16.97;58.97;97626.63;2067615;28;20371;-65
2023/03/08 00:01:52;;;;;;;;;;;;;;;16.97;58.92;97629.31;2069123;28;20118;-65
2023/03/08 00:02:55;;;;;;;;;;;;;;;16.96;58.95;97631.13;2070275;28;19940;-65
2023/03/08 00:03:56;;;;;;;;;;;;;;;16.96;58.87;97622.28;2070396;28;20264;-64
2023/03/08 00:04:58;;;;;;;;;;;;;;;16.95;58.87;97631.38;2069948;28;20092;-65
2023/03/08 00:06:02;;;;;;;;;;;;;;;16.95;58.90;97624.16;2062574;28;19932;-64
2023/03/08 00:07:04;;;;;;;;;;;;;;;16.95;58.92;97621.47;2063672;28;20025;-64
2023/03/08 00:08:04;;;;;;;;;;;;;;;16.95;58.94;97621.47;2077552;28;19936;-64
2023/03/08 00:09:06;;;;;;;;;;;;;;;16.95;58.89;97620.66;2074780;28;19924;-65
2023/03/08 00:10:06;;;;;;;;;;;;;;;16.94;58.93;97617.16;2069609;28;21864;-65
2023/03/08 00:11:09;;;;;;;;;;;;;;;16.95;58.93;97623.34;2068407;28;20011;-65
2023/03/08 00:12:09;;;;;;;;;;;;;;;16.95;58.71;97618.78;2069465;28;19929;-64
2023/03/08 00:13:11;;;;;;;;;;;;;;;16.95;58.78;97617.97;2070120;28;20359;-64
2023/03/08 00:14:11;;;;;;;;;;;;;;;16.95;58.76;97620.66;2067302;28;19959;-65
2023/03/08 00:15:13;;;;;;;;;;;;;;;16.96;58.86;97624.97;2063154;28;20011;-65
2023/03/08 00:16:13;;;;;;;;;;;;;;;16.95;58.81;97624.16;2069749;28;19932;-65
2023/03/08 00:17:16;;;;;;;;;;;;;;;16.94;58.88;97616.34;2069300;28;19978;-65
2023/03/08 00:18:17;;;;;;;;;;;;;;;16.94;58.82;97613.66;2079334;28;19925;-65
2023/03/08 00:19:19;;;;;;;;;;;;;;;16.94;58.87;97619.03;2080594;28;20465;-65
2023/03/08 00:20:19;;;;;;;;;;;;;;;16.93;58.78;97612.00;2079709;28;19928;-64
2023/03/08 00:21:21;;;;;;;;;;;;;;;16.93;58.87;97609.34;2079497;28;20996;-65
2023/03/08 00:22:21;;;;;;;;;;;;;;;16.93;58.83;97628.09;2079446;28;19929;-64
2023/03/08 00:23:23;;;;;;;;;;;;;;;16.92;58.83;97613.06;2079744;28;19933;-64
2023/03/08 00:24:23;;;;;;;;;;;;;;;16.94;58.78;97621.69;2080129;28;20047;-64
2023/03/08 00:25:25;;;;;;;;;;;;;;;16.91;58.78;97617.59;2079797;28;19936;-64
2023/03/08 00:26:25;;;;;;;;;;;;;;;16.92;58.75;97619.22;2080029;28;20752;-64
2023/03/08 00:27:26;;;;;;;;;;;;;;;16.91;58.82;97616.75;2078442;28;19963;-65
2023/03/08 00:28:27;;;;;;;;;;;;;;;16.90;58.82;97620.47;2076185;28;19977;-64
2023/03/08 00:29:29;;;;;;;;;;;;;;;16.88;58.86;97623.41;2080130;28;19932;-64
2023/03/08 00:30:30;;;;;;;;;;;;;;;16.91;58.79;97622.09;2076167;28;19932;-64
2023/03/08 00:31:31;;;;;;;;;;;;;;;16.90;58.85;97615.13;2078739;28;19929;-64
2023/03/08 00:32:33;;;;;;;;;;;;;;;16.91;58.89;97622.09;2080484;28;19994;-64
2023/03/08 00:33:35;;;;;;;;;;;;;;;16.89;58.74;97622.34;2080522;28;19964;-65
2023/03/08 00:34:36;;;;;;;;;;;;;;;16.89;58.70;97625.03;2082117;28;19990;-64
2023/03/08 00:35:37;;;;;;;;;;;;;;;16.90;58.66;97623.97;2079788;28;19924;-65
2023/03/08 00:36:37;;;;;;;;;;;;;;;16.88;58.75;97623.41;2080040;28;19937;-64
2023/03/08 00:37:39;;;;;;;;;;;;;;;16.88;58.69;97625.22;2080003;28;19929;-65
2023/03/08 00:38:40;;;;;;;;;;;;;;;16.89;58.86;97624.22;2080443;28;19925;-64
2023/03/08 00:39:41;;;;;;;;;;;;;;;16.90;58.76;97636.56;2079152;28;19955;-65
2023/03/08 00:40:42;;;;;;;;;;;;;;;16.89;58.67;97632.25;2080347;28;19977;-65
2023/03/08 00:41:43;;;;;;;;;;;;;;;16.89;58.70;97630.38;2078292;28;20429;-65
2023/03/08 00:42:43;;;;;;;;;;;;;;;16.92;58.61;97639.84;2080797;28;19929;-64
2023/03/08 00:43:45;;;;;;;;;;;;;;;16.91;58.57;97624.78;2079998;28;20443;-65
2023/03/08 00:44:46;;;;;;;;;;;;;;;16.90;58.60;97632.00;2079782;28;20344;-65
2023/03/08 00:45:47;;;;;;;;;;;;;;;16.90;58.63;97633.88;2078987;28;19956;-65
2023/03/08 00:46:48;;;;;;;;;;;;;;;16.89;58.59;97634.91;2080648;28;20530;-64
2023/03/08 00:47:50;;;;;;;;;;;;;;;16.88;58.75;97638.63;2072068;28;19939;-65
2023/03/08 00:48:51;;;;;;;;;;;;;;;16.87;58.68;97628.94;2066923;28;20399;-64
2023/03/08 00:49:52;;;;;;;;;;;;;;;16.89;58.58;97634.91;2068571;28;20006;-64
2023/03/08 00:50:53;;;;;;;;;;;;;;;16.87;58.67;97640.47;2067784;28;21120;-64
2023/03/08 00:51:54;;;;;;;;;;;;;;;16.89;58.59;97637.59;2065567;28;20650;-65
2023/03/08 00:52:55;;;;;;;;;;;;;;;16.89;58.56;97641.09;2068447;28;20198;-64
2023/03/08 00:53:56;;;;;;;;;;;;;;;16.90;58.67;97636.56;2068260;28;20380;-66
2023/03/08 00:54:57;;;;;;;;;;;;;;;16.89;58.63;97640.28;2067489;28;19932;-64
2023/03/08 00:55:59;;;;;;;;;;;;;;;16.90;58.60;97631.19;2066720;28;19932;-64
2023/03/08 00:57:00;;;;;;;;;;;;;;;16.88;58.58;97634.09;2070347;28;19944;-65
2023/03/08 00:58:01;;;;;;;;;;;;;;;16.86;58.61;97635.34;2066932;28;20564;-65
2023/03/08 00:59:03;;;;;;;;;;;;;;;16.86;58.66;97636.16;2069309;28;19974;-65
2023/03/08 01:00:07;;;;;;;;;;;;;;;16.86;58.55;97638.03;2072978;28;20115;-66
2023/03/08 01:01:12;;;;;;;;;;;;;;;16.90;58.50;97636.56;2071667;28;19936;-64
2023/03/08 01:02:12;;;;;;;;;;;;;;;16.90;58.42;97631.19;2067516;28;19982;-65
2023/03/08 01:03:15;;;;;;;;;;;;;;;16.87;58.39;97631.63;2069572;28;20943;-66
2023/03/08 01:04:16;;;;;;;;;;;;;;;16.88;58.52;97630.59;2070754;28;19937;-64
2023/03/08 01:05:17;;;;;;;;;;;;;;;16.87;58.54;97637.00;2066144;28;19933;-64
2023/03/08 01:06:18;;;;;;;;;;;;;;;16.85;58.63;97629.16;2068390;28;19932;-64
2023/03/08 01:07:21;;;;;;;;;;;;;;;16.86;58.51;97624.66;2067949;28;19928;-65
2023/03/08 01:08:22;;;;;;;;;;;;;;;16.85;58.54;97634.50;2069462;28;20365;-64
2023/03/08 01:09:24;;;;;;;;;;;;;;;16.86;58.44;97627.31;2074721;28;19937;-65
2023/03/08 01:10:24;;;;;;;;;;;;;;;16.85;58.48;97631.84;2066099;28;20672;-65
2023/03/08 01:11:26;;;;;;;;;;;;;;;16.85;58.57;97629.16;2068048;28;20352;-65
2023/03/08 01:12:27;;;;;;;;;;;;;;;16.85;58.41;97628.34;2068524;28;22164;-65
2023/03/08 01:13:30;;;;;;;;;;;;;;;16.86;58.49;97630.81;2072800;28;21563;-65
2023/03/08 01:14:31;;;;;;;;;;;;;;;16.86;58.49;97630.00;2066526;28;19994;-63
2023/03/08 01:15:34;;;;;;;;;;;;;;;16.83;58.45;97625.09;2070741;28;19932;-65
2023/03/08 01:16:35;;;;;;;;;;;;;;;16.85;58.42;97628.34;2070851;28;20006;-65
2023/03/08 01:17:36;;;;;;;;;;;;;;;16.84;58.49;97626.72;2068976;28;20005;-64
2023/03/08 01:18:38;;;;;;;;;;;;;;;16.84;58.53;97630.19;2067580;28;20014;-64
2023/03/08 01:19:39;;;;;;;;;;;;;;;16.84;58.46;97619.50;2068965;28;19952;-64
2023/03/08 01:20:40;;;;;;;;;;;;;;;16.84;58.46;97627.53;2067815;28;20093;-65
2023/03/08 01:21:41;;;;;;;;;;;;;;;16.83;58.57;97617.03;2065702;28;19936;-64
2023/03/08 01:22:42;;;;;;;;;;;;;;;16.83;58.58;97617.88;2065212;28;19925;-64
2023/03/08 01:23:43;;;;;;;;;;;;;;;16.83;58.38;97617.03;2068436;28;19932;-65
2023/03/08 01:24:44;;;;;;;;;;;;;;;16.83;58.45;97614.38;2065101;28;19970;-64
2023/03/08 01:25:46;;;;;;;;;;;;;;;16.83;58.45;97609.00;2068366;28;20808;-64
2023/03/08 01:26:48;;;;;;;;;;;;;;;16.84;58.49;97616.00;2071223;28;20447;-64
2023/03/08 01:27:48;;;;;;;;;;;;;;;16.83;58.39;97614.38;2072264;28;19978;-64
2023/03/08 01:28:50;;;;;;;;;;;;;;;16.83;58.28;97609.00;2068849;28;20590;-64
2023/03/08 01:29:51;;;;;;;;;;;;;;;16.82;58.34;97612.72;2069527;28;20295;-65
2023/03/08 01:30:52;;;;;;;;;;;;;;;16.83;58.28;97609.00;2075399;28;20265;-65
2023/03/08 01:31:53;;;;;;;;;;;;;;;16.83;58.42;97612.50;2069713;28;19932;-64
2023/03/08 01:32:54;;;;;;;;;;;;;;;16.80;58.38;97617.44;2065310;28;19976;-65
2023/03/08 01:33:56;;;;;;;;;;;;;;;16.79;58.43;97622.00;2064612;28;19940;-64
2023/03/08 01:35:03;;;;;;;;;;;;;;;16.78;58.51;97617.69;2071673;28;20027;-65
2023/03/08 01:36:04;;;;;;;;;;;;;;;16.80;58.43;97614.78;2067368;28;19928;-63
2023/03/08 01:37:05;;;;;;;;;;;;;;;16.79;58.40;97615.81;2068706;28;21098;-64
2023/03/08 01:38:06;;;;;;;;;;;;;;;16.79;58.45;97623.84;2066385;28;19937;-65
2023/03/08 01:39:07;;;;;;;;;;;;;;;16.79;58.49;97616.63;2071313;28;20086;-65
2023/03/08 01:40:08;;;;;;;;;;;;;;;16.80;58.35;97614.78;2065785;28;19939;-64
2023/03/08 01:41:14;;;;;;;;;;;;;;;16.80;58.33;97617.44;2074039;28;20574;-65
2023/03/08 01:42:15;;;;;;;;;;;;;;;16.79;58.32;97624.66;2069026;28;19936;-65
2023/03/08 01:43:21;;;;;;;;;;;;;;;16.80;58.22;97614.78;2070204;28;19979;-65
2023/03/08 01:44:23;;;;;;;;;;;;;;;16.78;58.36;97628.41;2068099;28;19933;-64
2023/03/08 01:45:42;;;;;;;;;;;;;;;16.77;58.41;97621.41;2069341;28;19933;-65
2023/03/08 01:46:43;;;;;;;;;;;;;;;16.77;58.34;97626.75;2072806;28;19929;-64
2023/03/08 01:47:43;;;;;;;;;;;;;;;16.78;58.33;97624.91;2070137;28;19990;-65
2023/03/08 01:48:47;;;;;;;;;;;;;;;16.77;58.45;97626.75;2068983;28;20516;-64
2023/03/08 01:49:50;;;;;;;;;;;;;;;16.77;58.36;97631.28;2067767;28;19932;-65
2023/03/08 01:50:51;;;;;;;;;;;;;;;16.78;58.37;97623.03;2067285;28;20002;-65
2023/03/08 01:51:56;;;;;;;;;;;;;;;16.77;58.39;97623.25;2065747;28;20053;-64
2023/03/08 01:52:57;;;;;;;;;;;;;;;16.77;58.33;97623.25;2071821;28;19979;-64
2023/03/08 01:54:00;;;;;;;;;;;;;;;16.77;58.33;97620.56;2068977;28;19936;-65
2023/03/08 01:55:02;;;;;;;;;;;;;;;16.75;58.39;97621.59;2066122;28;20659;-65
2023/03/08 01:56:05;;;;;;;;;;;;;;;16.75;58.27;97618.91;2069384;28;19933;-64
2023/03/08 01:57:08;;;;;;;;;;;;;;;16.75;58.35;97624.25;2073620;28;19970;-64
2023/03/08 01:58:10;;;;;;;;;;;;;;;16.75;58.28;97623.44;2068807;28;20128;-65
2023/03/08 01:59:10;;;;;;;;;;;;;;;16.75;58.33;97624.25;2069281;28;19924;-64
2023/03/08 02:00:13;;;;;;;;;;;;;;;16.77;58.29;97617.88;2071293;28;19929;-64
2023/03/08 02:01:13;;;;;;;;;;;;;;;16.73;58.30;97610.25;2065023;28;19933;-65
2023/03/08 02:02:16;;;;;;;;;;;;;;;16.75;58.28;97618.91;2062900;28;19932;-64
2023/03/08 02:03:17;;;;;;;;;;;;;;;16.75;58.20;97618.09;2071492;28;20397;-64
2023/03/08 02:04:18;;;;;;;;;;;;;;;16.73;58.56;97620.97;2068833;28;20007;-64
2023/03/08 02:05:21;;;;;;;;;;;;;;;16.74;58.29;97617.28;2069261;28;20108;-66
2023/03/08 02:06:22;;;;;;;;;;;;;;;16.74;58.27;97622.63;2075258;28;19925;-65
2023/03/08 02:07:22;;;;;;;;;;;;;;;16.73;58.23;97623.66;2068359;28;20252;-65
2023/03/08 02:08:24;;;;;;;;;;;;;;;16.74;58.30;97630.66;2067954;28;20872;-64
2023/03/08 02:09:25;;;;;;;;;;;;;;;16.71;58.25;97628.38;2067534;28;20423;-65
2023/03/08 02:10:26;;;;;;;;;;;;;;;16.73;58.36;97629.00;2071143;28;20002;-64
2023/03/08 02:11:27;;;;;;;;;;;;;;;16.71;58.26;97633.75;2065315;28;20027;-65
2023/03/08 02:12:28;;;;;;;;;;;;;;;16.72;58.30;97629.22;2067941;28;20115;-65
2023/03/08 02:13:29;;;;;;;;;;;;;;;16.72;58.31;97634.59;2066507;28;24195;-64
2023/03/08 02:14:31;;;;;;;;;;;;;;;16.73;58.18;97630.88;2063462;28;20386;-64
2023/03/08 02:15:31;;;;;;;;;;;;;;;16.74;58.22;97629.81;2074979;28;21125;-66
2023/03/08 02:16:33;;;;;;;;;;;;;;;16.72;58.44;97634.59;2071851;28;20296;-64
2023/03/08 02:17:34;;;;;;;;;;;;;;;16.72;58.26;97623.88;2060571;28;19936;-64
2023/03/08 02:18:35;;;;;;;;;;;;;;;16.72;58.23;97629.22;2072575;28;19932;-66
2023/03/08 02:19:41;;;;;;;;;;;;;;;16.72;58.23;97627.38;2077002;28;19928;-66
2023/03/08 02:20:43;;;;;;;;;;;;;;;16.70;58.24;97626.75;2071328;28;19935;-65
2023/03/08 02:21:44;;;;;;;;;;;;;;;16.70;58.22;97624.09;2068105;28;19943;-65
2023/03/08 02:22:48;;;;;;;;;;;;;;;16.71;58.29;97627.56;2071438;28;20386;-64
2023/03/08 02:23:49;;;;;;;;;;;;;;;16.69;58.26;97624.31;2072793;28;20295;-64
2023/03/08 02:24:50;;;;;;;;;;;;;;;16.68;58.30;97619.97;2074672;28;19939;-65
2023/03/08 02:25:52;;;;;;;;;;;;;;;16.68;58.23;97618.13;2078344;28;20447;-65
2023/03/08 02:26:59;;;;;;;;;;;;;;;16.68;58.26;97620.78;2073274;28;20737;-65
2023/03/08 02:28:00;;;;;;;;;;;;;;;16.68;58.25;97618.13;2072118;28;19982;-66
2023/03/08 02:29:01;;;;;;;;;;;;;;;16.68;58.19;97623.47;2076242;28;19954;-65
2023/03/08 02:30:02;;;;;;;;;;;;;;;16.69;58.35;97618.97;2070508;28;19939;-65
2023/03/08 02:31:04;;;;;;;;;;;;;;;16.67;58.30;97618.34;2081044;28;19929;-65
2023/03/08 02:32:04;;;;;;;;;;;;;;;16.66;58.28;97622.88;2071593;28;19928;-66
2023/03/08 02:33:06;;;;;;;;;;;;;;;16.66;58.22;97625.56;2069362;28;20054;-65
2023/03/08 02:34:06;;;;;;;;;;;;;;;16.66;58.37;97620.22;2074709;28;20386;-65
2023/03/08 02:35:08;;;;;;;;;;;;;;;16.66;58.23;97628.25;2070578;28;19933;-65
2023/03/08 02:36:09;;;;;;;;;;;;;;;16.65;58.23;97623.91;2071576;28;19952;-65
2023/03/08 02:37:10;;;;;;;;;;;;;;;16.65;58.30;97623.91;2070495;28;19924;-65
2023/03/08 02:38:13;;;;;;;;;;;;;;;16.66;58.30;97624.72;2070751;28;19937;-64
2023/03/08 02:39:15;;;;;;;;;;;;;;;16.67;58.15;97627.19;2072070;28;19928;-66
2023/03/08 02:40:15;;;;;;;;;;;;;;;16.65;58.24;97618.53;2074683;28;19933;-66
2023/03/08 02:41:17;;;;;;;;;;;;;;;16.67;58.19;97626.38;2071963;28;20528;-65
2023/03/08 02:42:17;;;;;;;;;;;;;;;16.64;58.21;97622.28;2070329;28;20336;-64
2023/03/08 02:43:19;;;;;;;;;;;;;;;16.65;58.28;97620.41;2079468;28;19986;-66
2023/03/08 02:44:20;;;;;;;;;;;;;;;16.65;58.28;97618.53;2073467;28;19925;-65
2023/03/08 02:45:21;;;;;;;;;;;;;;;16.63;58.31;97615.28;2074497;28;20061;-65
2023/03/08 02:46:22;;;;;;;;;;;;;;;16.63;58.24;97620.66;2070360;28;19937;-65
2023/03/08 02:47:23;;;;;;;;;;;;;;;16.62;58.26;97612.81;2067340;28;19925;-65
2023/03/08 02:48:23;;;;;;;;;;;;;;;16.63;58.30;97603.72;2067983;28;20013;-66
2023/03/08 02:49:25;;;;;;;;;;;;;;;16.61;58.31;97612.00;2060982;28;20358;-64
2023/03/08 02:50:25;;;;;;;;;;;;;;;16.61;58.26;97609.31;2069874;28;20008;-65
2023/03/08 02:51:27;;;;;;;;;;;;;;;16.61;58.25;97611.19;2065238;28;20439;-65
2023/03/08 02:52:27;;;;;;;;;;;;;;;16.59;58.29;97614.06;2058546;28;19933;-65
2023/03/08 02:53:30;;;;;;;;;;;;;;;16.60;58.20;97615.69;2056398;28;19932;-64
2023/03/08 02:54:31;;;;;;;;;;;;;;;16.60;58.29;97615.69;2067058;28;19997;-65
2023/03/08 02:55:34;;;;;;;;;;;;;;;16.60;58.23;97610.34;2064890;28;20074;-64
2023/03/08 02:56:36;;;;;;;;;;;;;;;16.61;58.27;97617.34;2062187;28;19979;-64
2023/03/08 02:57:37;;;;;;;;;;;;;;;16.60;58.20;97614.88;2070929;28;19964;-64
2023/03/08 02:58:38;;;;;;;;;;;;;;;16.60;58.17;97615.69;2069202;28;19933;-65
2023/03/08 02:59:39;;;;;;;;;;;;;;;16.59;58.25;97615.91;2059290;28;19933;-66
2023/03/08 03:00:39;;;;;;;;;;;;;;;16.58;58.36;97616.97;2067485;28;19933;-65
2023/03/08 03:01:41;;;;;;;;;;;;;;;16.58;58.27;97619.66;2069488;28;19933;-64
2023/03/08 03:02:41;;;;;;;;;;;;;;;16.58;58.25;97616.97;2062815;28;19974;-65
2023/03/08 03:03:43;;;;;;;;;;;;;;;16.57;58.36;97618.81;2063479;28;20025;-64
2023/03/08 03:04:43;;;;;;;;;;;;;;;16.57;58.25;97626.84;2063020;28;19986;-66
2023/03/08 03:05:45;;;;;;;;;;;;;;;16.57;58.35;97623.34;2066782;28;20306;-64
2023/03/08 03:06:45;;;;;;;;;;;;;;;16.56;58.29;97622.53;2071857;28;19925;-65
2023/03/08 03:07:47;;;;;;;;;;;;;;;16.57;58.31;97623.34;2071552;28;19940;-65
2023/03/08 03:08:49;;;;;;;;;;;;;;;16.55;58.33;97623.56;2069120;28;19925;-65
2023/03/08 03:09:50;;;;;;;;;;;;;;;16.54;58.34;97622.72;2067939;28;19929;-64
2023/03/08 03:10:50;;;;;;;;;;;;;;;16.54;58.31;97624.59;2060965;28;20192;-64
2023/03/08 03:11:52;;;;;;;;;;;;;;;16.56;58.33;97630.56;2061684;28;20402;-64
2023/03/08 03:12:52;;;;;;;;;;;;;;;16.56;58.23;97635.91;2069387;28;19994;-65
2023/03/08 03:13:55;;;;;;;;;;;;;;;16.54;58.31;97636.09;2061448;28;20021;-65
2023/03/08 03:14:55;;;;;;;;;;;;;;;16.53;58.37;97639.03;2065740;28;19936;-65
2023/03/08 03:15:57;;;;;;;;;;;;;;;16.53;58.28;97641.69;2061921;28;19933;-64
2023/03/08 03:16:57;;;;;;;;;;;;;;;16.56;58.36;97637.78;2065949;28;20190;-65
2023/03/08 03:17:59;;;;;;;;;;;;;;;16.53;58.25;97634.47;2065991;28;19955;-65
2023/03/08 03:18:59;;;;;;;;;;;;;;;16.56;58.31;97635.91;2060950;28;19929;-65
2023/03/08 03:20:01;;;;;;;;;;;;;;;16.55;58.26;97636.97;2066043;28;19968;-65
2023/03/08 03:21:02;;;;;;;;;;;;;;;16.54;58.26;97635.28;2064111;28;19936;-64
2023/03/08 03:22:04;;;;;;;;;;;;;;;16.53;58.21;97647.88;2068596;28;19933;-65
2023/03/08 03:23:05;;;;;;;;;;;;;;;16.52;58.31;97640.06;2065369;28;20014;-65
2023/03/08 03:24:08;;;;;;;;;;;;;;;16.52;58.24;97643.56;2070362;28;20021;-65
2023/03/08 03:25:08;;;;;;;;;;;;;;;16.54;58.30;97651.34;2068985;28;19932;-65
2023/03/08 03:26:11;;;;;;;;;;;;;;;16.53;58.22;97645.19;2069120;28;20002;-65
2023/03/08 03:27:11;;;;;;;;;;;;;;;16.54;58.27;97648.69;2067657;28;19936;-65
2023/03/08 03:28:13;;;;;;;;;;;;;;;16.52;58.33;97648.91;2068382;28;19937;-65
2023/03/08 03:29:13;;;;;;;;;;;;;;;16.51;58.21;97654.47;2064203;28;19929;-65
2023/03/08 03:30:15;;;;;;;;;;;;;;;16.52;58.24;97650.78;2066904;28;20390;-66
2023/03/08 03:31:17;;;;;;;;;;;;;;;16.53;58.15;97649.72;2066670;28;20016;-64
2023/03/08 03:32:18;;;;;;;;;;;;;;;16.49;58.25;97657.38;2071783;28;19932;-64
2023/03/08 03:33:19;;;;;;;;;;;;;;;16.52;58.17;97648.91;2070367;28;19978;-64
2023/03/08 03:34:20;;;;;;;;;;;;;;;16.51;58.27;97657.13;2066616;28;19962;-65
2023/03/08 03:35:21;;;;;;;;;;;;;;;16.49;58.31;97646.66;2074666;28;20629;-66
2023/03/08 03:36:23;;;;;;;;;;;;;;;16.49;58.29;97640.47;2069461;28;20459;-66
2023/03/08 03:37:23;;;;;;;;;;;;;;;16.50;58.26;97644.81;2069297;28;20121;-64
2023/03/08 03:38:25;;;;;;;;;;;;;;;16.49;58.22;97656.53;2069295;28;20018;-64
2023/03/08 03:39:32;;;;;;;;;;;;;;;16.49;58.30;97648.50;2072866;28;19928;-64
2023/03/08 03:40:34;;;;;;;;;;;;;;;16.51;58.18;97651.78;2066654;28;19935;-64
2023/03/08 03:41:34;;;;;;;;;;;;;;;16.48;58.32;97654.88;2067851;28;20024;-64
2023/03/08 03:42:36;;;;;;;;;;;;;;;16.46;58.20;97651.59;2071166;28;19952;-65
2023/03/08 03:43:37;;;;;;;;;;;;;;;16.47;58.29;97653.25;2066075;28;21413;-64
2023/03/08 03:44:38;;;;;;;;;;;;;;;16.47;58.25;97654.06;2071802;28;19933;-64
2023/03/08 03:45:39;;;;;;;;;;;;;;;16.46;58.28;97657.75;2068646;28;19940;-64
2023/03/08 03:46:40;;;;;;;;;;;;;;;16.46;58.22;97649.75;2069398;28;20528;-65
2023/03/08 03:47:40;;;;;;;;;;;;;;;16.46;58.32;97654.28;2067411;28;20022;-65
2023/03/08 03:48:42;;;;;;;;;;;;;;;16.45;58.21;97661.50;2068672;28;20656;-65
2023/03/08 03:49:42;;;;;;;;;;;;;;;16.46;58.26;97662.31;2069490;28;21142;-66
2023/03/08 03:50:44;;;;;;;;;;;;;;;16.47;58.23;97661.28;2074082;28;19986;-65
2023/03/08 03:51:44;;;;;;;;;;;;;;;16.45;58.33;97664.16;2066784;28;19929;-64
2023/03/08 03:52:45;;;;;;;;;;;;;;;16.44;58.24;97669.75;2068867;28;20025;-65
2023/03/08 03:53:46;;;;;;;;;;;;;;;16.43;58.37;97665.41;2069847;28;20488;-65
2023/03/08 03:54:49;;;;;;;;;;;;;;;16.44;58.36;97667.88;2069238;28;20436;-64
2023/03/08 03:55:50;;;;;;;;;;;;;;;16.45;58.23;97658.00;2069066;28;20313;-64
2023/03/08 03:56:51;;;;;;;;;;;;;;;16.44;58.29;97667.06;2068771;28;19956;-64
2023/03/08 03:57:52;;;;;;;;;;;;;;;16.43;58.32;97670.75;2069039;28;20495;-65
2023/03/08 03:58:54;;;;;;;;;;;;;;;16.43;58.20;97673.44;2071947;28;20061;-65
2023/03/08 03:59:54;;;;;;;;;;;;;;;16.42;58.29;97669.94;2067620;28;19929;-65
2023/03/08 04:00:56;;;;;;;;;;;;;;;16.44;58.29;97685.81;2070446;28;20083;-64
2023/03/08 04:01:56;;;;;;;;;;;;;;;16.43;58.27;97681.47;2068094;28;19928;-65
2023/03/08 04:02:57;;;;;;;;;;;;;;;16.42;58.23;97691.34;2069833;28;20443;-65
2023/03/08 04:03:58;;;;;;;;;;;;;;;16.41;58.34;97687.06;2071118;28;20428;-65
2023/03/08 04:05:00;;;;;;;;;;;;;;;16.41;58.31;97680.84;2071787;28;19933;-65
2023/03/08 04:06:11;;;;;;;;;;;;;;;16.42;58.27;97672.63;2070266;28;19929;-65
2023/03/08 04:07:12;;;;;;;;;;;;;;;16.43;58.09;97668.09;2070664;28;20453;-65
2023/03/08 04:08:13;;;;;;;;;;;;;;;16.41;58.23;97667.47;2071404;28;20006;-65
2023/03/08 04:09:15;;;;;;;;;;;;;;;16.41;58.33;97664.78;2065271;28;19959;-66
2023/03/08 04:10:17;;;;;;;;;;;;;;;16.40;58.31;97658.63;2074585;28;20337;-65
2023/03/08 04:11:20;;;;;;;;;;;;;;;16.41;58.23;97665.63;2070807;28;19970;-65
2023/03/08 04:12:20;;;;;;;;;;;;;;;16.43;58.24;97673.44;2066808;28;19929;-64
2023/03/08 04:13:22;;;;;;;;;;;;;;;16.42;58.21;97669.13;2068839;28;20331;-65
2023/03/08 04:14:22;;;;;;;;;;;;;;;16.42;58.16;97674.47;2070641;28;19955;-65
2023/03/08 04:15:23;;;;;;;;;;;;;;;16.43;58.21;97676.13;2070035;28;19928;-66
2023/03/08 04:16:25;;;;;;;;;;;;;;;16.44;58.18;97675.91;2066263;28;20352;-65
2023/03/08 04:17:26;;;;;;;;;;;;;;;16.44;58.16;97669.75;2079826;28;20004;-65
2023/03/08 04:18:27;;;;;;;;;;;;;;;16.43;58.13;97679.59;2078618;28;19958;-65
2023/03/08 04:19:28;;;;;;;;;;;;;;;16.43;58.07;97684.16;2080382;28;20054;-65
2023/03/08 04:20:28;;;;;;;;;;;;;;;16.42;58.21;97679.84;2077656;28;19990;-64
2023/03/08 04:21:30;;;;;;;;;;;;;;;16.42;58.24;97682.50;2079435;28;20333;-65
2023/03/08 04:22:31;;;;;;;;;;;;;;;16.43;58.17;97684.16;2078991;28;19925;-64
2023/03/08 04:23:33;;;;;;;;;;;;;;;16.41;58.18;97686.22;2079919;28;19983;-65
2023/03/08 04:24:33;;;;;;;;;;;;;;;16.39;58.15;97681.09;2076917;28;19928;-65
2023/03/08 04:25:36;;;;;;;;;;;;;;;16.41;58.05;97683.53;2077776;28;19933;-64
2023/03/08 04:26:37;;;;;;;;;;;;;;;16.40;58.27;97680.03;2076853;28;20012;-65
2023/03/08 04:27:38;;;;;;;;;;;;;;;16.39;58.24;97681.09;2079852;28;19952;-64
2023/03/08 04:28:38;;;;;;;;;;;;;;;16.40;58.22;97676.53;2080481;28;21640;-65
2023/03/08 04:29:40;;;;;;;;;;;;;;;16.38;58.25;97683.97;2080022;28;20612;-65
2023/03/08 04:30:40;;;;;;;;;;;;;;;16.37;58.22;97691.16;2080096;28;19933;-65
2023/03/08 04:31:42;;;;;;;;;;;;;;;16.39;58.28;97686.44;2079360;28;19924;-65
2023/03/08 04:32:42;;;;;;;;;;;;;;;16.39;58.36;97683.75;2080746;28;20561;-65
2023/03/08 04:33:44;;;;;;;;;;;;;;;16.38;58.14;97692.81;2080847;28;20149;-65
2023/03/08 04:34:44;;;;;;;;;;;;;;;16.38;58.28;97690.16;2080572;28;19925;-65
2023/03/08 04:35:46;;;;;;;;;;;;;;;16.39;58.22;97699.00;2079180;28;19986;-65
2023/03/08 04:36:47;;;;;;;;;;;;;;;16.39;58.30;97696.31;2079104;28;20302;-65
2023/03/08 04:37:48;;;;;;;;;;;;;;;16.40;58.09;97695.28;2075739;28;20401;-65
2023/03/08 04:38:50;;;;;;;;;;;;;;;16.40;58.19;97704.13;2080272;28;20006;-65
2023/03/08 04:39:50;;;;;;;;;;;;;;;16.40;58.22;97695.28;2080185;28;19928;-65
2023/03/08 04:41:04;;;;;;;;;;;;;;;16.39;58.28;97702.50;2081063;28;20004;-64
2023/03/08 04:42:05;;;;;;;;;;;;;;;16.40;58.22;97700.63;2079559;28;20002;-64
2023/03/08 04:43:06;;;;;;;;;;;;;;;16.38;58.36;97703.53;2081440;28;19974;-64
2023/03/08 04:44:07;;;;;;;;;;;;;;;16.38;58.26;97697.34;2078140;28;19932;-64
2023/03/08 04:45:08;;;;;;;;;;;;;;;16.38;58.36;97703.53;2081393;28;20535;-64
2023/03/08 04:46:09;;;;;;;;;;;;;;;16.39;58.39;97702.50;2079224;28;19925;-64
2023/03/08 04:47:11;;;;;;;;;;;;;;;16.40;58.31;97706.81;2080015;28;19929;-65
2023/03/08 04:48:11;;;;;;;;;;;;;;;16.41;58.13;97702.25;2067856;28;20815;-64
2023/03/08 04:49:12;;;;;;;;;;;;;;;16.40;58.26;97697.94;2069495;28;19978;-64
2023/03/08 04:50:13;;;;;;;;;;;;;;;16.40;58.44;97711.34;2068380;28;20432;-64
2023/03/08 04:51:15;;;;;;;;;;;;;;;16.39;58.54;97705.16;2074299;28;19932;-65
2023/03/08 04:52:16;;;;;;;;;;;;;;;16.39;58.33;97704.34;2053323;28;20962;-64
2023/03/08 04:53:17;;;;;;;;;;;;;;;16.39;58.49;97705.16;2064867;28;21013;-65
2023/03/08 04:54:18;;;;;;;;;;;;;;;16.38;58.41;97703.53;2065239;28;19970;-64
2023/03/08 04:55:19;;;;;;;;;;;;;;;16.39;58.48;97701.69;2065351;28;20010;-65
2023/03/08 04:56:22;;;;;;;;;;;;;;;16.39;58.41;97705.16;2066837;28;19936;-65
2023/03/08 04:57:22;;;;;;;;;;;;;;;16.39;58.37;97712.38;2065654;28;19994;-65
2023/03/08 04:58:23;;;;;;;;;;;;;;;16.40;58.57;97705.97;2061280;28;20399;-66
2023/03/08 04:59:25;;;;;;;;;;;;;;;16.38;58.48;97724.09;2063600;28;20670;-64
2023/03/08 05:00:25;;;;;;;;;;;;;;;16.40;58.49;97716.69;2065646;28;19977;-64
2023/03/08 05:01:27;;;;;;;;;;;;;;;16.39;58.46;97715.06;2068742;28;20352;-65
2023/03/08 05:02:27;;;;;;;;;;;;;;;16.40;58.61;97719.38;2065572;28;20701;-65
2023/03/08 05:03:29;;;;;;;;;;;;;;;16.40;58.42;97714.00;2069961;28;19933;-65
2023/03/08 05:04:29;;;;;;;;;;;;;;;16.41;58.48;97721.00;2072757;28;20350;-64
2023/03/08 05:05:31;;;;;;;;;;;;;;;16.40;58.49;97717.50;2068667;28;19986;-65
2023/03/08 05:06:32;;;;;;;;;;;;;;;16.41;58.45;97719.16;2075141;28;19935;-65
2023/03/08 05:07:32;;;;;;;;;;;;;;;16.41;58.61;97721.84;2070794;28;19979;-66
2023/03/08 05:08:34;;;;;;;;;;;;;;;16.42;58.57;97717.31;2068098;28;20453;-64
2023/03/08 05:09:34;;;;;;;;;;;;;;;16.43;58.58;97721.63;2063797;28;19933;-65
2023/03/08 05:10:36;;;;;;;;;;;;;;;16.42;58.52;97719.97;2069034;28;19924;-65
2023/03/08 05:11:38;;;;;;;;;;;;;;;16.42;58.55;97722.66;2066663;28;19929;-65
2023/03/08 05:12:39;;;;;;;;;;;;;;;16.43;58.59;97721.63;2066485;28;19986;-65
2023/03/08 05:13:39;;;;;;;;;;;;;;;16.43;58.64;97716.25;2067080;28;19932;-64
2023/03/08 05:14:41;;;;;;;;;;;;;;;16.43;58.58;97719.75;2068099;28;20382;-64
2023/03/08 05:15:41;;;;;;;;;;;;;;;16.44;58.59;97712.56;2061169;28;20447;-65
2023/03/08 05:16:43;;;;;;;;;;;;;;;16.43;58.68;97724.28;2071502;28;19936;-65
2023/03/08 05:17:43;;;;;;;;;;;;;;;16.43;58.59;97717.06;2063086;28;21483;-65
2023/03/08 05:18:45;;;;;;;;;;;;;;;16.45;58.60;97720.38;2066099;28;20933;-64
2023/03/08 05:19:45;;;;;;;;;;;;;;;16.42;58.61;97715.44;2070733;28;19929;-64
2023/03/08 05:20:53;;;;;;;;;;;;;;;16.42;58.78;97717.31;2069901;28;20331;-65